sensor_id;sensor_type;location;lat;lon;timestamp;P1;durP1;ratioP1;P2;durP2;ratioP2
7989;SDS011;4040;42.848;23.034;2022-07-10T00:05:03;21.80;;;18.80;;
7989;SDS011;4040;42.848;23.034;2022-07-10T00:10:53;23.77;;;19.73;;
7989;SDS011;4040;42.848;23.034;2022-07-10T00:16:42;20.60;;;17.08;;
7989;SDS011;4040;42.848;23.034;2022-07-10T00:22:30;20.08;;;16.48;;
7989;SDS011;4040;42.848;23.034;2022-07-10T00:28:21;18.23;;;16.23;;
7989;SDS011;4040;42.848;23.034;2022-07-10T00:34:10;17.63;;;15.75;;
7989;SDS011;4040;42.848;23.034;2022-07-10T00:39:59;21.17;;;17.05;;
7989;SDS011;4040;42.848;23.034;2022-07-10T00:45:49;19.43;;;16.00;;
7989;SDS011;4040;42.848;23.034;2022-07-10T00:51:38;18.23;;;15.03;;
7989;SDS011;4040;42.848;23.034;2022-07-10T00:57:27;21.20;;;17.60;;
7989;SDS011;4040;42.848;23.034;2022-07-10T01:03:17;21.53;;;17.50;;
7989;SDS011;4040;42.848;23.034;2022-07-10T01:09:06;25.63;;;18.90;;
7989;SDS011;4040;42.848;23.034;2022-07-10T01:14:55;21.43;;;18.27;;
7989;SDS011;4040;42.848;23.034;2022-07-10T01:20:45;22.37;;;18.77;;
7989;SDS011;4040;42.848;23.034;2022-07-10T01:26:36;22.50;;;18.40;;
7989;SDS011;4040;42.848;23.034;2022-07-10T01:32:35;21.10;;;17.55;;
7989;SDS011;4040;42.848;23.034;2022-07-10T01:38:25;21.23;;;17.67;;
7989;SDS011;4040;42.848;23.034;2022-07-10T01:44:15;20.43;;;17.13;;
7989;SDS011;4040;42.848;23.034;2022-07-10T01:50:04;21.93;;;18.00;;
7989;SDS011;4040;42.848;23.034;2022-07-10T01:55:53;23.40;;;18.57;;
7989;SDS011;4040;42.848;23.034;2022-07-10T02:01:44;24.83;;;18.77;;
7989;SDS011;4040;42.848;23.034;2022-07-10T02:11:34;21.23;;;17.83;;
7989;SDS011;4040;42.848;23.034;2022-07-10T02:17:24;22.10;;;17.37;;
7989;SDS011;4040;42.848;23.034;2022-07-10T02:23:13;20.50;;;15.80;;
7989;SDS011;4040;42.848;23.034;2022-07-10T02:29:02;20.93;;;16.53;;
7989;SDS011;4040;42.848;23.034;2022-07-10T02:34:53;18.37;;;16.37;;
7989;SDS011;4040;42.848;23.034;2022-07-10T02:40:41;18.43;;;16.47;;
7989;SDS011;4040;42.848;23.034;2022-07-10T02:46:30;20.03;;;16.97;;
7989;SDS011;4040;42.848;23.034;2022-07-10T02:52:21;22.83;;;17.93;;
7989;SDS011;4040;42.848;23.034;2022-07-10T02:58:09;22.10;;;18.57;;
7989;SDS011;4040;42.848;23.034;2022-07-10T03:03:58;21.70;;;18.23;;
7989;SDS011;4040;42.848;23.034;2022-07-10T03:14:01;24.03;;;19.23;;
7989;SDS011;4040;42.848;23.034;2022-07-10T03:19:50;22.97;;;18.23;;
7989;SDS011;4040;42.848;23.034;2022-07-10T03:25:39;22.97;;;19.17;;
7989;SDS011;4040;42.848;23.034;2022-07-10T03:31:29;22.43;;;19.77;;
7989;SDS011;4040;42.848;23.034;2022-07-10T03:37:18;22.57;;;18.30;;
7989;SDS011;4040;42.848;23.034;2022-07-10T03:43:07;20.47;;;17.37;;
7989;SDS011;4040;42.848;23.034;2022-07-10T03:48:57;22.60;;;17.57;;
7989;SDS011;4040;42.848;23.034;2022-07-10T03:54:46;20.37;;;16.13;;
7989;SDS011;4040;42.848;23.034;2022-07-10T04:00:35;17.75;;;15.85;;
7989;SDS011;4040;42.848;23.034;2022-07-10T04:06:27;17.55;;;14.60;;
7989;SDS011;4040;42.848;23.034;2022-07-10T04:08:54;17.60;;;15.77;;
7989;SDS011;4040;42.848;23.034;2022-07-10T04:14:43;16.63;;;14.70;;
7989;SDS011;4040;42.848;23.034;2022-07-10T04:20:33;18.25;;;14.32;;
7989;SDS011;4040;42.848;23.034;2022-07-10T04:26:24;17.75;;;13.75;;
7989;SDS011;4040;42.848;23.034;2022-07-10T04:32:13;15.45;;;13.85;;
7989;SDS011;4040;42.848;23.034;2022-07-10T04:38:02;15.20;;;13.68;;
7989;SDS011;4040;42.848;23.034;2022-07-10T04:43:52;14.60;;;13.00;;
7989;SDS011;4040;42.848;23.034;2022-07-10T04:49:41;15.57;;;13.48;;
7989;SDS011;4040;42.848;23.034;2022-07-10T04:55:29;14.60;;;13.20;;
7989;SDS011;4040;42.848;23.034;2022-07-10T05:01:20;16.25;;;13.25;;
7989;SDS011;4040;42.848;23.034;2022-07-10T05:07:09;15.80;;;13.43;;
7989;SDS011;4040;42.848;23.034;2022-07-10T05:09:36;13.73;;;12.32;;
7989;SDS011;4040;42.848;23.034;2022-07-10T05:15:25;12.07;;;10.82;;
7989;SDS011;4040;42.848;23.034;2022-07-10T05:21:15;14.60;;;10.55;;
7989;SDS011;4040;42.848;23.034;2022-07-10T05:27:04;11.20;;;10.00;;
7989;SDS011;4040;42.848;23.034;2022-07-10T05:32:53;10.95;;;9.07;;
7989;SDS011;4040;42.848;23.034;2022-07-10T05:38:43;9.05;;;8.15;;
7989;SDS011;4040;42.848;23.034;2022-07-10T05:44:32;9.07;;;8.18;;
7989;SDS011;4040;42.848;23.034;2022-07-10T05:50:21;8.88;;;8.07;;
7989;SDS011;4040;42.848;23.034;2022-07-10T05:56:11;8.38;;;7.45;;
7989;SDS011;4040;42.848;23.034;2022-07-10T06:02:00;7.65;;;6.90;;
7989;SDS011;4040;42.848;23.034;2022-07-10T06:07:49;6.30;;;5.70;;
7989;SDS011;4040;42.848;23.034;2022-07-10T06:13:39;7.15;;;5.85;;
7989;SDS011;4040;42.848;23.034;2022-07-10T06:19:28;7.10;;;4.72;;
7989;SDS011;4040;42.848;23.034;2022-07-10T06:25:17;4.68;;;4.28;;
7989;SDS011;4040;42.848;23.034;2022-07-10T06:31:07;8.30;;;5.40;;
7989;SDS011;4040;42.848;23.034;2022-07-10T06:36:56;4.57;;;4.18;;
7989;SDS011;4040;42.848;23.034;2022-07-10T06:42:45;5.20;;;4.38;;
7989;SDS011;4040;42.848;23.034;2022-07-10T06:48:35;4.40;;;4.00;;
7989;SDS011;4040;42.848;23.034;2022-07-10T06:54:26;5.72;;;4.15;;
7989;SDS011;4040;42.848;23.034;2022-07-10T07:00:15;3.85;;;3.35;;
7989;SDS011;4040;42.848;23.034;2022-07-10T07:06:05;4.78;;;3.50;;
7989;SDS011;4040;42.848;23.034;2022-07-10T07:16:06;3.25;;;2.95;;
7989;SDS011;4040;42.848;23.034;2022-07-10T07:21:58;4.85;;;3.67;;
7989;SDS011;4040;42.848;23.034;2022-07-10T07:24:39;3.20;;;2.95;;
7989;SDS011;4040;42.848;23.034;2022-07-10T07:30:27;3.92;;;2.90;;
7989;SDS011;4040;42.848;23.034;2022-07-10T07:36:16;3.75;;;3.15;;
7989;SDS011;4040;42.848;23.034;2022-07-10T07:42:07;4.15;;;3.05;;
7989;SDS011;4040;42.848;23.034;2022-07-10T07:47:56;4.97;;;3.00;;
7989;SDS011;4040;42.848;23.034;2022-07-10T07:53:45;3.58;;;2.60;;
7989;SDS011;4040;42.848;23.034;2022-07-10T07:59:36;2.78;;;2.58;;
7989;SDS011;4040;42.848;23.034;2022-07-10T08:05:26;3.05;;;2.75;;
7989;SDS011;4040;42.848;23.034;2022-07-10T08:11:15;4.03;;;2.85;;
7989;SDS011;4040;42.848;23.034;2022-07-10T08:17:06;6.68;;;2.92;;
7989;SDS011;4040;42.848;23.034;2022-07-10T08:22:54;2.90;;;2.70;;
7989;SDS011;4040;42.848;23.034;2022-07-10T08:28:43;5.80;;;3.00;;
7989;SDS011;4040;42.848;23.034;2022-07-10T08:34:33;4.13;;;2.40;;
7989;SDS011;4040;42.848;23.034;2022-07-10T08:40:22;5.43;;;2.80;;
7989;SDS011;4040;42.848;23.034;2022-07-10T08:46:11;5.70;;;2.60;;
7989;SDS011;4040;42.848;23.034;2022-07-10T08:52:04;4.38;;;2.50;;
7989;SDS011;4040;42.848;23.034;2022-07-10T08:57:54;3.45;;;2.45;;
7989;SDS011;4040;42.848;23.034;2022-07-10T09:03:44;3.88;;;2.17;;
7989;SDS011;4040;42.848;23.034;2022-07-10T09:09:35;5.15;;;2.75;;
7989;SDS011;4040;42.848;23.034;2022-07-10T09:15:47;5.15;;;2.42;;
7989;SDS011;4040;42.848;23.034;2022-07-10T09:21:36;7.53;;;2.45;;
7989;SDS011;4040;42.848;23.034;2022-07-10T09:27:27;3.28;;;2.20;;
7989;SDS011;4040;42.848;23.034;2022-07-10T09:33:16;4.03;;;2.50;;
7989;SDS011;4040;42.848;23.034;2022-07-10T09:39:09;12.13;;;3.08;;
7989;SDS011;4040;42.848;23.034;2022-07-10T09:45:18;4.38;;;2.58;;
7989;SDS011;4040;42.848;23.034;2022-07-10T09:51:10;3.80;;;2.63;;
7989;SDS011;4040;42.848;23.034;2022-07-10T09:56:59;6.50;;;2.60;;
7989;SDS011;4040;42.848;23.034;2022-07-10T10:02:56;5.18;;;2.83;;
7989;SDS011;4040;42.848;23.034;2022-07-10T10:08:48;2.65;;;1.98;;
7989;SDS011;4040;42.848;23.034;2022-07-10T10:19:03;4.60;;;2.15;;
7989;SDS011;4040;42.848;23.034;2022-07-10T10:25:09;5.65;;;2.20;;
7989;SDS011;4040;42.848;23.034;2022-07-10T10:30:59;2.30;;;2.10;;
7989;SDS011;4040;42.848;23.034;2022-07-10T10:36:50;3.28;;;2.35;;
7989;SDS011;4040;42.848;23.034;2022-07-10T10:42:39;2.42;;;2.17;;
7989;SDS011;4040;42.848;23.034;2022-07-10T10:48:30;2.45;;;2.10;;
7989;SDS011;4040;42.848;23.034;2022-07-10T10:54:20;4.20;;;2.35;;
7989;SDS011;4040;42.848;23.034;2022-07-10T11:00:09;5.50;;;2.10;;
7989;SDS011;4040;42.848;23.034;2022-07-10T11:06:03;3.13;;;2.22;;
7989;SDS011;4040;42.848;23.034;2022-07-10T11:12:02;3.33;;;2.33;;
7989;SDS011;4040;42.848;23.034;2022-07-10T11:17:58;7.90;;;2.17;;
7989;SDS011;4040;42.848;23.034;2022-07-10T11:23:49;5.00;;;2.58;;
7989;SDS011;4040;42.848;23.034;2022-07-10T11:29:46;5.47;;;1.80;;
7989;SDS011;4040;42.848;23.034;2022-07-10T11:35:44;4.93;;;2.08;;
7989;SDS011;4040;42.848;23.034;2022-07-10T11:41:34;2.15;;;1.80;;
7989;SDS011;4040;42.848;23.034;2022-07-10T11:47:31;2.95;;;1.60;;
7989;SDS011;4040;42.848;23.034;2022-07-10T11:53:23;6.15;;;1.98;;
7989;SDS011;4040;42.848;23.034;2022-07-10T11:59:13;5.78;;;3.00;;
7989;SDS011;4040;42.848;23.034;2022-07-10T12:05:04;2.80;;;1.77;;
7989;SDS011;4040;42.848;23.034;2022-07-10T12:10:55;4.50;;;3.40;;
7989;SDS011;4040;42.848;23.034;2022-07-10T12:20:57;2.28;;;1.30;;
7989;SDS011;4040;42.848;23.034;2022-07-10T12:26:47;7.07;;;3.13;;
7989;SDS011;4040;42.848;23.034;2022-07-10T12:32:36;6.00;;;3.08;;
7989;SDS011;4040;42.848;23.034;2022-07-10T12:38:27;10.85;;;3.85;;
7989;SDS011;4040;42.848;23.034;2022-07-10T12:44:29;4.40;;;1.73;;
7989;SDS011;4040;42.848;23.034;2022-07-10T12:50:22;7.32;;;2.67;;
7989;SDS011;4040;42.848;23.034;2022-07-10T12:56:26;5.10;;;1.75;;
7989;SDS011;4040;42.848;23.034;2022-07-10T13:02:19;7.72;;;4.05;;
7989;SDS011;4040;42.848;23.034;2022-07-10T13:08:44;3.67;;;1.30;;
7989;SDS011;4040;42.848;23.034;2022-07-10T13:14:34;39.30;;;17.13;;
7989;SDS011;4040;42.848;23.034;2022-07-10T13:20:23;5.05;;;2.00;;
7989;SDS011;4040;42.848;23.034;2022-07-10T13:26:12;5.78;;;1.35;;
7989;SDS011;4040;42.848;23.034;2022-07-10T13:32:03;4.20;;;1.30;;
7989;SDS011;4040;42.848;23.034;2022-07-10T13:37:52;1.98;;;1.30;;
7989;SDS011;4040;42.848;23.034;2022-07-10T13:43:41;8.50;;;3.00;;
7989;SDS011;4040;42.848;23.034;2022-07-10T13:49:31;4.28;;;2.03;;
7989;SDS011;4040;42.848;23.034;2022-07-10T13:55:19;5.18;;;2.00;;
7989;SDS011;4040;42.848;23.034;2022-07-10T14:01:08;4.53;;;2.10;;
7989;SDS011;4040;42.848;23.034;2022-07-10T14:06:58;10.68;;;5.32;;
7989;SDS011;4040;42.848;23.034;2022-07-10T14:12:47;2.03;;;1.80;;
7989;SDS011;4040;42.848;23.034;2022-07-10T14:22:19;14.63;;;6.07;;
7989;SDS011;4040;42.848;23.034;2022-07-10T14:28:09;6.28;;;3.30;;
7989;SDS011;4040;42.848;23.034;2022-07-10T14:33:59;3.30;;;2.42;;
7989;SDS011;4040;42.848;23.034;2022-07-10T14:39:49;4.93;;;1.98;;
7989;SDS011;4040;42.848;23.034;2022-07-10T14:45:38;2.90;;;1.63;;
7989;SDS011;4040;42.848;23.034;2022-07-10T14:51:27;4.47;;;2.00;;
7989;SDS011;4040;42.848;23.034;2022-07-10T14:57:18;3.90;;;2.00;;
7989;SDS011;4040;42.848;23.034;2022-07-10T15:03:06;2.78;;;2.00;;
7989;SDS011;4040;42.848;23.034;2022-07-10T15:08:55;2.78;;;1.73;;
7989;SDS011;4040;42.848;23.034;2022-07-10T15:14:46;2.28;;;2.08;;
7989;SDS011;4040;42.848;23.034;2022-07-10T15:24:36;3.72;;;2.00;;
7989;SDS011;4040;42.848;23.034;2022-07-10T15:30:27;3.50;;;1.92;;
7989;SDS011;4040;42.848;23.034;2022-07-10T15:36:16;7.88;;;2.22;;
7989;SDS011;4040;42.848;23.034;2022-07-10T15:42:05;1.90;;;1.80;;
7989;SDS011;4040;42.848;23.034;2022-07-10T15:47:56;2.67;;;1.60;;
7989;SDS011;4040;42.848;23.034;2022-07-10T15:53:44;2.00;;;1.70;;
7989;SDS011;4040;42.848;23.034;2022-07-10T15:59:33;2.05;;;1.80;;
7989;SDS011;4040;42.848;23.034;2022-07-10T16:05:24;4.75;;;1.80;;
7989;SDS011;4040;42.848;23.034;2022-07-10T16:11:13;1.60;;;1.40;;
7989;SDS011;4040;42.848;23.034;2022-07-10T16:17:03;5.30;;;1.48;;
7989;SDS011;4040;42.848;23.034;2022-07-10T16:27:05;1.90;;;1.60;;
7989;SDS011;4040;42.848;23.034;2022-07-10T16:32:54;2.25;;;1.40;;
7989;SDS011;4040;42.848;23.034;2022-07-10T16:38:43;1.70;;;1.60;;
7989;SDS011;4040;42.848;23.034;2022-07-10T16:44:34;1.60;;;1.50;;
7989;SDS011;4040;42.848;23.034;2022-07-10T16:50:22;2.15;;;1.95;;
7989;SDS011;4040;42.848;23.034;2022-07-10T16:56:11;4.63;;;2.83;;
7989;SDS011;4040;42.848;23.034;2022-07-10T17:02:01;9.32;;;3.75;;
7989;SDS011;4040;42.848;23.034;2022-07-10T17:07:51;4.85;;;3.25;;
7989;SDS011;4040;42.848;23.034;2022-07-10T17:13:39;3.72;;;2.80;;
7989;SDS011;4040;42.848;23.034;2022-07-10T17:19:30;6.05;;;2.75;;
7989;SDS011;4040;42.848;23.034;2022-07-10T17:29:40;4.80;;;2.20;;
7989;SDS011;4040;42.848;23.034;2022-07-10T17:35:30;2.83;;;2.25;;
7989;SDS011;4040;42.848;23.034;2022-07-10T17:41:18;2.42;;;1.90;;
7989;SDS011;4040;42.848;23.034;2022-07-10T17:47:07;1.90;;;1.63;;
7989;SDS011;4040;42.848;23.034;2022-07-10T17:52:58;2.30;;;1.77;;
7989;SDS011;4040;42.848;23.034;2022-07-10T17:58:46;3.92;;;1.60;;
7989;SDS011;4040;42.848;23.034;2022-07-10T18:04:35;3.40;;;2.03;;
7989;SDS011;4040;42.848;23.034;2022-07-10T18:10:25;2.10;;;1.83;;
7989;SDS011;4040;42.848;23.034;2022-07-10T18:16:14;5.05;;;2.00;;
7989;SDS011;4040;42.848;23.034;2022-07-10T18:22:05;3.58;;;1.70;;
7989;SDS011;4040;42.848;23.034;2022-07-10T18:32:18;4.15;;;1.98;;
7989;SDS011;4040;42.848;23.034;2022-07-10T18:38:27;1.90;;;1.73;;
7989;SDS011;4040;42.848;23.034;2022-07-10T18:44:16;2.92;;;2.00;;
7989;SDS011;4040;42.848;23.034;2022-07-10T18:50:07;2.33;;;1.90;;
7989;SDS011;4040;42.848;23.034;2022-07-10T18:55:56;3.60;;;1.80;;
7989;SDS011;4040;42.848;23.034;2022-07-10T19:01:45;2.22;;;2.03;;
7989;SDS011;4040;42.848;23.034;2022-07-10T19:07:36;5.07;;;2.15;;
7989;SDS011;4040;42.848;23.034;2022-07-10T19:13:24;2.30;;;2.10;;
7989;SDS011;4040;42.848;23.034;2022-07-10T19:19:13;4.00;;;2.22;;
7989;SDS011;4040;42.848;23.034;2022-07-10T19:25:04;2.50;;;2.30;;
7989;SDS011;4040;42.848;23.034;2022-07-10T19:35:15;2.72;;;2.15;;
7989;SDS011;4040;42.848;23.034;2022-07-10T19:41:05;2.17;;;2.08;;
7989;SDS011;4040;42.848;23.034;2022-07-10T19:46:55;2.22;;;2.00;;
7989;SDS011;4040;42.848;23.034;2022-07-10T19:52:44;3.25;;;2.13;;
7989;SDS011;4040;42.848;23.034;2022-07-10T19:58:34;2.90;;;2.40;;
7989;SDS011;4040;42.848;23.034;2022-07-10T20:04:23;2.50;;;2.30;;
7989;SDS011;4040;42.848;23.034;2022-07-10T20:10:12;2.95;;;2.25;;
7989;SDS011;4040;42.848;23.034;2022-07-10T20:16:02;5.32;;;2.55;;
7989;SDS011;4040;42.848;23.034;2022-07-10T20:21:51;4.35;;;2.30;;
7989;SDS011;4040;42.848;23.034;2022-07-10T20:27:40;2.72;;;2.53;;
7989;SDS011;4040;42.848;23.034;2022-07-10T20:37:53;3.13;;;2.90;;
7989;SDS011;4040;42.848;23.034;2022-07-10T20:43:42;2.75;;;2.53;;
7989;SDS011;4040;42.848;23.034;2022-07-10T20:49:30;2.83;;;2.63;;
7989;SDS011;4040;42.848;23.034;2022-07-10T20:55:21;4.70;;;3.05;;
7989;SDS011;4040;42.848;23.034;2022-07-10T21:01:10;3.22;;;2.92;;
7989;SDS011;4040;42.848;23.034;2022-07-10T21:06:58;3.22;;;2.92;;
7989;SDS011;4040;42.848;23.034;2022-07-10T21:12:48;3.25;;;3.00;;
7989;SDS011;4040;42.848;23.034;2022-07-10T21:18:37;3.38;;;3.08;;
7989;SDS011;4040;42.848;23.034;2022-07-10T21:24:26;3.15;;;2.95;;
7989;SDS011;4040;42.848;23.034;2022-07-10T21:30:16;3.50;;;3.20;;
7989;SDS011;4040;42.848;23.034;2022-07-10T21:40:27;2.95;;;2.75;;
7989;SDS011;4040;42.848;23.034;2022-07-10T21:46:17;3.85;;;2.70;;
7989;SDS011;4040;42.848;23.034;2022-07-10T21:52:06;3.70;;;3.00;;
7989;SDS011;4040;42.848;23.034;2022-07-10T21:57:55;4.80;;;2.80;;
7989;SDS011;4040;42.848;23.034;2022-07-10T22:08:37;4.50;;;3.17;;
7989;SDS011;4040;42.848;23.034;2022-07-10T22:14:26;3.43;;;3.13;;
7989;SDS011;4040;42.848;23.034;2022-07-10T22:20:15;3.30;;;3.00;;
7989;SDS011;4040;42.848;23.034;2022-07-10T22:26:06;3.83;;;3.50;;
7989;SDS011;4040;42.848;23.034;2022-07-10T22:31:55;3.77;;;3.27;;
7989;SDS011;4040;42.848;23.034;2022-07-10T22:37:43;3.20;;;3.00;;
7989;SDS011;4040;42.848;23.034;2022-07-10T22:43:34;3.60;;;3.30;;
7989;SDS011;4040;42.848;23.034;2022-07-10T22:49:23;3.73;;;3.43;;
7989;SDS011;4040;42.848;23.034;2022-07-10T22:55:12;3.20;;;2.90;;
7989;SDS011;4040;42.848;23.034;2022-07-10T23:01:03;3.83;;;3.07;;
7989;SDS011;4040;42.848;23.034;2022-07-10T23:06:55;3.60;;;3.30;;
7989;SDS011;4040;42.848;23.034;2022-07-10T23:12:44;3.50;;;3.20;;
7989;SDS011;4040;42.848;23.034;2022-07-10T23:18:34;3.30;;;3.00;;
7989;SDS011;4040;42.848;23.034;2022-07-10T23:24:22;3.20;;;2.90;;
7989;SDS011;4040;42.848;23.034;2022-07-10T23:30:11;3.77;;;2.87;;
7989;SDS011;4040;42.848;23.034;2022-07-10T23:36:02;3.47;;;3.17;;
7989;SDS011;4040;42.848;23.034;2022-07-10T23:41:51;3.50;;;3.20;;
7989;SDS011;4040;42.848;23.034;2022-07-10T23:48:09;3.50;;;3.20;;
7989;SDS011;4040;42.848;23.034;2022-07-10T23:54:19;4.63;;;3.10;;
